Time;durP1;ratioP1;P1;durP2;ratioP2;P2;SDS_P1;SDS_P2;PMS_P1;PMS_P2;Temp;Humidity;BMP_temperature;BMP_pressure;BME280_temperature;BME280_humidity;BME280_pressure;Samples;Min_cycle;Max_cycle;Signal;HPM_P1;HPM_P2
2021/05/10 00:00:21;;;;;;;2.90;2.00;;;20.20;69.90;;;;;;5029861;28;20035;-76
2021/05/10 00:02:47;;;;;;;4.90;2.22;;;20.00;72.20;;;;;;5045325;28;20546;-78
2021/05/10 00:05:13;;;;;;;4.35;2.10;;;20.00;72.70;;;;;;5028467;28;20033;-78
2021/05/10 00:07:39;;;;;;;9.52;6.40;;;20.00;73.70;;;;;;5053249;28;20033;-78
2021/05/10 00:10:07;;;;;;;10.30;6.03;;;21.90;76.10;;;;;;5032398;28;20061;-79
2021/05/10 00:12:33;;;;;;;8.98;4.03;;;19.90;75.20;;;;;;5030542;28;20017;-76
2021/05/10 00:14:59;;;;;;;12.38;5.75;;;;;;;;;;5029093;28;20066;-77
2021/05/10 00:17:24;;;;;;;11.25;5.57;;;19.90;76.80;;;;;;5028659;28;20123;-78
2021/05/10 00:19:50;;;;;;;6.00;2.20;;;;;;;;;;5028302;28;20105;-75
2021/05/10 00:22:16;;;;;;;3.10;2.10;;;19.80;78.80;;;;;;5027371;28;20036;-77
2021/05/10 00:24:42;;;;;;;4.30;2.45;;;19.70;80.00;;;;;;5025812;28;20036;-79
2021/05/10 00:27:07;;;;;;;3.55;2.17;;;20.60;81.90;;;;;;5027820;28;20044;-78
2021/05/10 00:29:33;;;;;;;3.92;2.20;;;19.60;82.40;;;;;;5027198;28;20036;-79
2021/05/10 00:32:00;;;;;;;5.90;2.22;;;20.80;83.20;;;;;;5042303;28;20036;-78
2021/05/10 00:34:26;;;;;;;6.90;2.20;;;19.60;78.40;;;;;;5040120;28;20079;-79
2021/05/10 00:36:52;;;;;;;5.38;1.90;;;19.60;78.30;;;;;;5029351;28;20033;-81
2021/05/10 00:39:18;;;;;;;5.07;2.45;;;23.00;80.10;;;;;;5054026;28;20021;-78
2021/05/10 00:41:44;;;;;;;3.78;1.80;;;;;;;;;;5033396;28;20033;-77
2021/05/10 00:44:09;;;;;;;3.22;2.00;;;19.50;77.20;;;;;;5042880;28;20036;-78
2021/05/10 00:46:37;;;;;;;4.85;2.00;;;19.50;77.10;;;;;;5029242;28;20017;-79
2021/05/10 00:49:04;;;;;;;4.68;1.75;;;19.00;77.30;;;;;;5017292;28;20599;-79
2021/05/10 00:51:30;;;;;;;3.92;1.80;;;;;;;;;;5033186;28;20090;-79
2021/05/10 00:53:56;;;;;;;5.28;2.10;;;;;;;;;;5033347;28;20021;-78
2021/05/10 00:56:22;;;;;;;8.18;3.42;;;;;;;;;;5029264;28;20060;-77
2021/05/10 00:58:48;;;;;;;6.13;2.00;;;;;;;;;;5034001;28;20040;-80
2021/05/10 01:01:14;;;;;;;5.47;2.42;;;;;;;;;;5024738;28;20509;-78
2021/05/10 01:03:42;;;;;;;4.30;2.08;;;19.40;77.70;;;;;;5028752;28;20024;-80
2021/05/10 01:06:08;;;;;;;4.55;2.17;;;;;;;;;;5048355;28;20026;-80
2021/05/10 01:08:34;;;;;;;5.57;2.45;;;;;;;;;;5035333;28;20062;-76
2021/05/10 01:11:00;;;;;;;4.32;1.88;;;;;;;;;;5028250;28;20045;-76
2021/05/10 01:13:26;;;;;;;7.40;4.28;;;19.30;81.70;;;;;;5034521;28;20036;-79
2021/05/10 01:15:52;;;;;;;5.80;2.80;;;;;;;;;;5032726;28;20059;-76
2021/05/10 01:18:19;;;;;;;4.43;2.15;;;19.20;83.90;;;;;;5035786;28;20106;-77
2021/05/10 01:20:47;;;;;;;12.40;7.85;;;19.20;85.20;;;;;;5031129;28;20035;-78
2021/05/10 01:23:16;;;;;;;9.05;5.55;;;19.20;87.20;;;;;;5043470;28;20613;-79
2021/05/10 01:25:41;;;;;;;6.55;4.28;;;20.80;88.30;;;;;;5031985;28;20029;-79
2021/05/10 01:28:07;;;;;;;9.07;5.38;;;22.50;89.90;;;;;;5045138;28;20535;-77
2021/05/10 01:30:39;;;;;;;8.50;4.72;;;19.20;88.90;;;;;;5026793;28;20483;-79
2021/05/10 01:33:06;;;;;;;5.75;3.00;;;19.30;88.80;;;;;;5028645;28;20078;-78
2021/05/10 01:35:34;;;;;;;7.68;4.03;;;19.40;89.10;;;;;;5048068;28;20040;-79
2021/05/10 01:38:01;;;;;;;5.40;2.80;;;19.30;89.00;;;;;;5024631;28;20020;-79
2021/05/10 01:40:28;;;;;;;4.72;2.55;;;19.20;87.30;;;;;;5026176;28;20027;-79
2021/05/10 01:42:54;;;;;;;4.53;2.60;;;;;;;;;;5030815;28;20052;-78
2021/05/10 01:45:19;;;;;;;6.43;2.67;;;19.10;86.70;;;;;;5028045;28;20048;-80
2021/05/10 01:47:45;;;;;;;8.00;2.90;;;;;;;;;;5045138;28;20025;-78
2021/05/10 01:50:17;;;;;;;4.38;2.42;;;19.00;86.60;;;;;;5047219;28;20041;-79
2021/05/10 01:52:48;;;;;;;7.10;2.70;;;19.00;86.50;;;;;;5028291;28;20032;-78
2021/05/10 01:55:15;;;;;;;4.93;2.38;;;19.00;86.40;;;;;;5047675;28;20052;-78
2021/05/10 01:57:41;;;;;;;5.38;2.58;;;19.00;87.00;;;;;;5032082;28;20033;-81
2021/05/10 02:00:10;;;;;;;5.03;2.40;;;19.00;86.70;;;;;;5046564;28;20040;-78
2021/05/10 02:02:35;;;;;;;4.32;2.50;;;18.90;86.60;;;;;;5027677;28;20203;-75
2021/05/10 02:05:04;;;;;;;6.78;2.63;;;19.00;86.00;;;;;;5040671;28;20488;-79
2021/05/10 02:07:32;;;;;;;4.57;2.65;;;;;;;;;;5033833;28;20587;-79
2021/05/10 02:09:58;;;;;;;6.88;2.70;;;19.00;86.40;;;;;;5034122;28;20395;-80
2021/05/10 02:12:24;;;;;;;6.75;2.67;;;19.00;87.10;;;;;;5046634;28;20029;-79
2021/05/10 02:14:52;;;;;;;5.80;2.63;;;;;;;;;;5027346;28;20048;-79
2021/05/10 02:17:17;;;;;;;6.35;2.63;;;19.10;86.50;;;;;;5047926;28;20517;-79
2021/05/10 02:19:43;;;;;;;5.03;2.72;;;;;;;;;;5028615;28;20036;-76
2021/05/10 02:22:09;;;;;;;5.07;2.40;;;18.90;87.80;;;;;;5034534;28;20036;-80
2021/05/10 02:24:38;;;;;;;8.68;2.53;;;18.90;87.60;;;;;;5051997;28;20021;-79
2021/05/10 02:27:05;;;;;;;5.70;3.30;;;18.90;88.40;;;;;;5024298;28;20128;-77
2021/05/10 02:29:31;;;;;;;7.97;2.60;;;18.90;88.30;;;;;;5022757;28;20681;-78
2021/05/10 02:31:56;;;;;;;6.07;2.78;;;19.40;88.60;;;;;;5041605;28;20032;-79
2021/05/10 02:34:22;;;;;;;6.40;3.00;;;;;;;;;;5040419;28;20098;-80
2021/05/10 02:36:49;;;;;;;4.43;2.70;;;18.90;87.80;;;;;;5040896;28;20123;-78
2021/05/10 02:39:15;;;;;;;4.32;2.40;;;;;;;;;;5025120;28;20021;-80
2021/05/10 02:41:41;;;;;;;6.97;2.05;;;;;;;;;;5031430;28;20033;-79
2021/05/10 02:44:07;;;;;;;3.72;2.42;;;19.00;86.90;;;;;;5040056;28;20028;-81
2021/05/10 02:46:34;;;;;;;6.85;2.50;;;;;;;;;;5035253;28;20562;-76
2021/05/10 02:48:59;;;;;;;5.25;1.90;;;19.10;85.80;;;;;;5029082;28;20562;-79
2021/05/10 02:51:25;;;;;;;6.00;1.95;;;;;;;;;;5045366;28;20120;-80
2021/05/10 02:53:52;;;;;;;3.78;1.90;;;;;;;;;;5041535;28;20082;-76
2021/05/10 02:56:19;;;;;;;4.38;1.90;;;19.40;80.50;;;;;;5029734;28;20140;-79
2021/05/10 02:58:45;;;;;;;5.70;1.80;;;19.50;80.40;;;;;;5035680;28;20403;-79
2021/05/10 03:01:11;;;;;;;5.18;1.70;;;;;;;;;;5032554;28;20029;-76
2021/05/10 03:03:37;;;;;;;3.78;1.90;;;;;;;;;;5022866;28;20033;-78
2021/05/10 03:06:03;;;;;;;3.95;1.52;;;;;;;;;;5026591;28;20044;-79
2021/05/10 03:08:31;;;;;;;2.90;1.60;;;;;;;;;;5043073;28;20048;-78
2021/05/10 03:10:58;;;;;;;5.65;1.52;;;19.70;79.70;;;;;;5040249;28;20036;-78
2021/05/10 03:13:23;;;;;;;3.80;1.73;;;19.70;80.30;;;;;;5019056;28;20029;-78
2021/05/10 03:15:49;;;;;;;4.70;1.80;;;19.70;81.00;;;;;;5038166;28;20038;-78
2021/05/10 03:18:14;;;;;;;3.55;1.90;;;19.60;82.90;;;;;;5021371;28;20029;-79
2021/05/10 03:20:43;;;;;;;6.07;1.70;;;19.50;83.20;;;;;;5030421;28;20487;-79
2021/05/10 03:23:10;;;;;;;3.42;1.80;;;19.80;83.70;;;;;;5026533;28;20021;-77
2021/05/10 03:25:36;;;;;;;3.97;1.70;;;22.10;85.60;;;;;;5034761;28;20051;-83
2021/05/10 03:28:02;;;;;;;4.80;1.98;;;19.50;83.30;;;;;;5029721;28;20029;-77
2021/05/10 03:30:30;;;;;;;3.85;1.85;;;19.30;83.80;;;;;;5042828;28;20037;-78
2021/05/10 03:32:55;;;;;;;4.82;1.50;;;19.20;85.10;;;;;;5042664;28;20056;-79
2021/05/10 03:35:21;;;;;;;4.57;2.10;;;19.20;85.10;;;;;;5025147;28;20119;-77
2021/05/10 03:37:47;;;;;;;4.95;1.77;;;19.20;86.50;;;;;;5030933;28;20029;-78
2021/05/10 03:40:15;;;;;;;4.32;1.50;;;20.70;86.50;;;;;;5043518;28;20029;-79
2021/05/10 03:42:41;;;;;;;4.03;1.70;;;19.00;86.30;;;;;;5027199;28;20545;-79
2021/05/10 03:45:08;;;;;;;4.00;1.95;;;18.90;86.70;;;;;;5044936;28;20025;-80
2021/05/10 03:47:41;;;;;;;3.75;1.73;;;;;;;;;;5047966;28;20083;-79
2021/05/10 03:50:07;;;;;;;6.05;1.70;;;18.90;87.00;;;;;;5031892;28;20036;-78
2021/05/10 03:52:34;;;;;;;3.70;1.85;;;;;;;;;;5042651;28;20474;-80
2021/05/10 03:54:59;;;;;;;2.42;1.30;;;18.90;85.60;;;;;;5050330;28;20025;-76
2021/05/10 03:57:25;;;;;;;6.32;1.92;;;18.90;84.90;;;;;;5024778;28;20211;-75
2021/05/10 03:59:51;;;;;;;3.40;1.70;;;;;;;;;;5048758;28;20030;-78
2021/05/10 04:02:17;;;;;;;3.80;1.77;;;19.10;83.90;;;;;;5025046;28;20025;-79
2021/05/10 04:04:47;;;;;;;4.72;1.70;;;;;;;;;;5029710;28;20025;-77
2021/05/10 04:07:30;;;;;;;4.15;1.77;;;19.00;84.40;;;;;;5047229;28;20039;-80
2021/05/10 04:15:12;;;;;;;3.10;1.40;;;19.00;84.30;;;;;;5035704;28;20079;-78
2021/05/10 04:17:38;;;;;;;3.47;1.67;;;19.10;86.70;;;;;;5031497;28;20034;-79
2021/05/10 04:20:04;;;;;;;6.88;1.95;;;18.90;88.70;;;;;;5041338;28;20199;-79
2021/05/10 04:22:30;;;;;;;4.35;1.52;;;;;;;;;;5050172;28;20028;-79
2021/05/10 04:24:56;;;;;;;4.03;1.52;;;18.70;90.00;;;;;;5029648;28;20036;-79
2021/05/10 04:27:21;;;;;;;9.40;1.95;;;18.60;91.20;;;;;;5028250;28;20033;-78
2021/05/10 04:29:47;;;;;;;3.38;1.80;;;18.30;91.80;;;;;;5029502;28;20036;-79
2021/05/10 04:32:12;;;;;;;4.93;1.95;;;18.30;92.60;;;;;;5046959;28;20052;-78
2021/05/10 04:34:38;;;;;;;4.65;1.90;;;;;;;;;;5022568;28;20100;-79
2021/05/10 04:37:04;;;;;;;4.55;2.00;;;18.20;93.30;;;;;;5025426;28;20044;-78
2021/05/10 04:39:30;;;;;;;4.85;1.60;;;18.10;93.80;;;;;;5040364;28;20039;-76
2021/05/10 04:41:56;;;;;;;9.63;2.03;;;;;;;;;;5045667;28;20040;-79
2021/05/10 04:44:24;;;;;;;4.03;1.95;;;18.00;94.50;;;;;;5030539;28;20024;-79
2021/05/10 04:46:49;;;;;;;6.07;2.00;;;19.00;95.40;;;;;;5040713;28;20065;-78
2021/05/10 04:49:15;;;;;;;5.25;2.10;;;;;;;;;;5045740;28;20036;-79
2021/05/10 04:51:43;;;;;;;5.03;1.77;;;;;;;;;;5029143;28;20029;-77
2021/05/10 04:54:09;;;;;;;8.27;2.40;;;;;;;;;;5016916;28;20021;-79
2021/05/10 04:56:35;;;;;;;5.25;1.98;;;17.70;96.20;;;;;;5046354;28;20079;-77
2021/05/10 04:59:01;;;;;;;5.18;1.98;;;20.90;97.20;;;;;;5026266;28;20478;-79
2021/05/10 05:01:26;;;;;;;5.57;2.15;;;17.60;96.70;;;;;;5025361;28;20029;-78
2021/05/10 05:03:52;;;;;;;6.13;1.88;;;17.50;96.70;;;;;;5024602;28;20032;-77
2021/05/10 05:06:18;;;;;;;5.63;1.60;;;;;;;;;;5049001;28;20048;-78
2021/05/10 05:08:44;;;;;;;5.40;2.25;;;;;;;;;;5026791;28;20037;-75
2021/05/10 05:11:09;;;;;;;4.32;2.00;;;17.60;96.30;;;;;;5025768;28;20037;-79
2021/05/10 05:13:35;;;;;;;5.30;1.92;;;17.60;96.50;;;;;;5046644;28;20028;-78
2021/05/10 05:16:03;;;;;;;4.88;2.05;;;;;;;;;;5035507;28;20581;-78
2021/05/10 05:18:29;;;;;;;5.60;2.22;;;;;;;;;;5043105;28;20586;-79
2021/05/10 05:20:55;;;;;;;5.53;2.17;;;;;;;;;;5030442;28;20115;-76
2021/05/10 05:23:25;;;;;;;5.30;2.10;;;17.60;96.40;;;;;;5041200;28;20025;-77
2021/05/10 05:26:02;;;;;;;4.38;2.05;;;17.70;97.00;;;;;;5042099;28;20040;-80
2021/05/10 05:28:28;;;;;;;6.40;2.13;;;17.60;96.50;;;;;;5024460;28;20030;-80
2021/05/10 05:30:55;;;;;;;5.68;2.10;;;17.80;96.60;;;;;;5042245;28;20422;-78
2021/05/10 05:33:23;;;;;;;5.60;2.22;;;18.90;97.10;;;;;;5023474;28;20048;-77
2021/05/10 05:35:49;;;;;;;5.32;2.58;;;17.60;96.50;;;;;;5031294;28;20051;-78
2021/05/10 05:38:15;;;;;;;2.70;1.92;;;17.50;96.60;;;;;;5035126;28;20025;-77
2021/05/10 05:40:42;;;;;;;5.78;2.10;;;18.00;96.90;;;;;;5050674;28;20029;-78
2021/05/10 05:43:11;;;;;;;4.18;2.25;;;19.30;97.20;;;;;;5043858;28;20025;-77
2021/05/10 05:45:38;;;;;;;8.07;2.03;;;17.60;96.70;;;;;;5045826;28;20024;-77
2021/05/10 05:48:05;;;;;;;4.40;1.95;;;17.60;96.40;;;;;;5040330;28;20032;-77
2021/05/10 05:50:32;;;;;;;7.05;2.15;;;17.60;96.50;;;;;;5027399;28;20036;-76
2021/05/10 05:52:58;;;;;;;5.18;2.00;;;;;;;;;;5048550;28;20025;-78
2021/05/10 05:55:24;;;;;;;4.05;2.03;;;17.60;96.20;;;;;;5034691;28;20119;-77
2021/05/10 05:57:50;;;;;;;4.07;1.98;;;17.60;96.40;;;;;;5029195;28;20468;-78
2021/05/10 06:00:16;;;;;;;5.88;1.95;;;17.60;96.60;;;;;;5029175;28;20954;-79
2021/05/10 06:02:42;;;;;;;4.72;2.00;;;;;;;;;;5050008;28;20071;-76
2021/05/10 06:05:12;;;;;;;4.82;2.28;;;17.50;96.70;;;;;;5029834;28;20025;-79
2021/05/10 06:07:42;;;;;;;4.47;1.75;;;17.60;96.80;;;;;;5035459;28;20466;-79
2021/05/10 06:10:14;;;;;;;4.13;1.85;;;17.70;96.60;;;;;;5034225;28;20478;-79
2021/05/10 06:12:47;;;;;;;4.20;1.90;;;17.60;96.90;;;;;;5030903;28;20033;-79
2021/05/10 06:15:13;;;;;;;3.42;1.83;;;17.60;96.90;;;;;;5050503;28;20426;-79
2021/05/10 06:17:40;;;;;;;7.32;2.28;;;17.80;96.40;;;;;;5045004;28;20025;-77
2021/05/10 06:20:08;;;;;;;7.70;2.20;;;17.80;96.60;;;;;;5055348;28;20075;-78
2021/05/10 06:22:35;;;;;;;3.67;1.83;;;17.70;96.30;;;;;;5042246;28;20025;-80
2021/05/10 06:25:05;;;;;;;4.78;1.80;;;17.70;96.40;;;;;;5037872;28;20079;-78
2021/05/10 06:27:30;;;;;;;7.55;2.17;;;17.80;96.50;;;;;;5042992;28;20037;-79
2021/05/10 06:29:56;;;;;;;6.32;2.30;;;17.70;97.50;;;;;;5026556;28;20049;-80
2021/05/10 06:32:22;;;;;;;4.00;2.00;;;18.30;97.20;;;;;;5043110;28;20024;-80
2021/05/10 06:34:47;;;;;;;4.07;1.75;;;17.80;96.20;;;;;;5042809;28;20032;-79
2021/05/10 06:37:18;;;;;;;5.80;2.05;;;17.80;96.30;;;;;;5030041;28;20033;-79
2021/05/10 06:39:45;;;;;;;4.88;1.80;;;;;;;;;;5042819;28;20092;-81
2021/05/10 06:42:10;;;;;;;3.72;1.70;;;17.90;96.10;;;;;;5038652;28;20040;-77
2021/05/10 06:44:36;;;;;;;3.83;1.70;;;17.80;96.70;;;;;;5052508;28;20052;-78
2021/05/10 06:47:01;;;;;;;4.18;1.98;;;17.80;96.60;;;;;;5068379;28;20028;-79
2021/05/10 06:49:30;;;;;;;13.13;2.20;;;;;;;;;;5051473;28;20518;-79
2021/05/10 06:51:55;;;;;;;2.75;1.70;;;17.60;97.00;;;;;;5024048;28;20467;-78
2021/05/10 06:54:21;;;;;;;3.55;1.77;;;17.60;97.60;;;;;;5047451;28;20080;-79
2021/05/10 06:56:47;;;;;;;3.88;1.90;;;;;;;;;;5024987;28;20518;-79
2021/05/10 06:59:13;;;;;;;7.25;1.98;;;;;;;;;;5054159;28;20033;-79
2021/05/10 07:01:38;;;;;;;3.15;1.60;;;17.40;97.60;;;;;;5055978;28;20021;-78
2021/05/10 07:04:04;;;;;;;3.80;1.67;;;;;;;;;;5037320;28;20024;-79
2021/05/10 07:06:30;;;;;;;3.90;1.75;;;17.40;97.60;;;;;;5033950;28;20103;-79
2021/05/10 07:08:55;;;;;;;3.83;1.60;;;17.40;97.80;;;;;;5043906;28;20033;-80
2021/05/10 07:11:21;;;;;;;3.60;1.48;;;19.70;98.10;;;;;;5058829;28;20044;-81
2021/05/10 07:13:47;;;;;;;2.97;1.45;;;17.40;97.10;;;;;;5051358;28;20037;-80
2021/05/10 07:16:12;;;;;;;5.40;1.50;;;17.50;97.20;;;;;;5029955;28;20041;-79
2021/05/10 07:18:38;;;;;;;3.42;1.17;;;17.50;97.00;;;;;;5028397;28;20040;-76
2021/05/10 07:21:04;;;;;;;6.20;2.10;;;17.50;97.00;;;;;;5044670;28;20406;-79
2021/05/10 07:23:30;;;;;;;1.45;1.15;;;20.60;97.30;;;;;;5027987;28;20044;-77
2021/05/10 07:25:55;;;;;;;3.63;1.38;;;17.50;96.30;;;;;;5033325;28;20120;-79
2021/05/10 07:28:22;;;;;;;2.85;1.50;;;;;;;;;;5045436;28;20032;-79
2021/05/10 07:30:48;;;;;;;2.15;1.20;;;17.30;96.70;;;;;;5029775;28;20033;-79
2021/05/10 07:33:14;;;;;;;3.15;1.60;;;17.10;96.90;;;;;;5035459;28;20025;-80
2021/05/10 07:35:40;;;;;;;3.33;1.20;;;17.10;97.10;;;;;;5037606;28;20091;-80
2021/05/10 07:38:06;;;;;;;3.65;1.13;;;;;;;;;;5036277;28;20029;-78
2021/05/10 07:40:32;;;;;;;3.63;1.20;;;;;;;;;;5030831;28;20036;-79
2021/05/10 07:42:59;;;;;;;2.58;1.45;;;17.10;97.20;;;;;;5030002;28;20412;-78
2021/05/10 07:45:26;;;;;;;2.67;1.30;;;;;;;;;;5033790;28;20028;-78
2021/05/10 07:47:53;;;;;;;2.95;1.20;;;;;;;;;;5037724;28;20047;-79
2021/05/10 07:50:23;;;;;;;9.07;1.60;;;17.20;98.10;;;;;;5030499;28;20039;-82
2021/05/10 07:52:49;;;;;;;;;;;17.20;98.30;;;;;;5030079;28;20028;-81
2021/05/10 07:55:15;;;;;;;2.60;1.85;;;;;;;;;;5030151;28;19909;-80
2021/05/10 07:57:41;;;;;;;4.28;1.33;;;;;;;;;;5033668;28;20033;-81
2021/05/10 08:00:12;;;;;;;1.10;0.95;;;17.00;97.40;;;;;;5041315;28;20028;-80
2021/05/10 08:02:38;;;;;;;2.75;1.08;;;17.00;97.70;;;;;;5019804;28;20115;-81
2021/05/10 08:05:04;;;;;;;2.20;1.10;;;17.10;97.40;;;;;;5025832;28;20153;-79
2021/05/10 08:07:30;;;;;;;3.40;1.10;;;;;;;;;;5046702;28;20033;-80
2021/05/10 08:09:56;;;;;;;4.28;1.27;;;17.10;97.20;;;;;;5037415;28;20456;-80
2021/05/10 08:12:22;;;;;;;5.10;1.40;;;17.30;96.70;;;;;;5037201;28;20035;-79
2021/05/10 08:14:47;;;;;;;2.80;1.15;;;17.20;97.20;;;;;;5029138;28;20040;-81
2021/05/10 08:17:13;;;;;;;1.10;0.65;;;;;;;;;;5031320;28;20032;-79
2021/05/10 08:19:39;;;;;;;2.85;1.00;;;;;;;;;;5033188;28;20432;-79
2021/05/10 08:22:05;;;;;;;1.77;1.00;;;;;;;;;;5063036;28;20033;-81
2021/05/10 08:24:32;;;;;;;3.88;1.25;;;16.80;99.40;;;;;;5029087;28;20025;-80
2021/05/10 08:26:58;;;;;;;2.65;1.27;;;;;;;;;;5031817;28;20035;-79
2021/05/10 08:29:25;;;;;;;3.50;1.50;;;;;;;;;;5026726;28;20037;-81
2021/05/10 08:31:51;;;;;;;3.92;1.10;;;16.70;99.90;;;;;;5051408;28;20043;-82
2021/05/10 08:34:18;;;;;;;2.33;1.23;;;;;;;;;;5032010;28;20483;-80
2021/05/10 08:36:44;;;;;;;2.10;1.10;;;;;;;;;;5025155;28;20033;-76
2021/05/10 08:39:10;;;;;;;4.05;1.10;;;;;;;;;;5040411;28;20428;-81
2021/05/10 08:41:37;;;;;;;3.03;1.10;;;13.10;99.90;;;;;;5044733;28;20147;-80
2021/05/10 08:44:04;;;;;;;1.98;1.33;;;15.80;99.90;;;;;;5039468;28;20078;-80
2021/05/10 08:46:31;;;;;;;2.40;0.93;;;15.90;99.90;;;;;;5044704;28;20033;-81
2021/05/10 08:48:58;;;;;;;3.28;1.17;;;15.80;99.90;;;;;;5043147;28;20442;-80
2021/05/10 08:51:25;;;;;;;1.98;1.30;;;15.80;99.90;;;;;;5025357;28;20168;-79
2021/05/10 08:53:51;;;;;;;3.97;1.00;;;;;;;;;;5046266;28;20067;-81
2021/05/10 08:56:18;;;;;;;1.35;1.00;;;15.70;99.90;;;;;;5025724;28;20439;-79
2021/05/10 08:58:45;;;;;;;2.75;1.15;;;15.80;99.90;;;;;;5044515;28;20484;-79
2021/05/10 09:01:12;;;;;;;3.22;1.88;;;15.80;99.90;;;;;;5043093;28;20021;-79
2021/05/10 09:03:44;;;;;;;2.72;1.10;;;15.90;99.90;;;;;;5026223;28;20091;-79
2021/05/10 09:06:29;;;;;;;1.88;1.00;;;15.70;99.90;;;;;;5034714;28;20025;-79
2021/05/10 09:09:04;;;;;;;2.13;1.27;;;15.70;99.90;;;;;;5046267;28;20036;-79
2021/05/10 09:11:30;;;;;;;2.35;1.30;;;15.80;99.90;;;;;;5018949;28;20068;-79
2021/05/10 09:13:58;;;;;;;2.90;1.48;;;15.90;99.90;;;;;;5029433;28;20087;-82
2021/05/10 09:16:25;;;;;;;2.78;1.00;;;;;;;;;;5048670;28;20051;-82
2021/05/10 09:18:59;;;;;;;2.30;1.13;;;15.60;99.90;;;;;;5034427;28;20029;-85
2021/05/10 09:21:27;;;;;;;1.77;1.10;;;15.70;99.90;;;;;;5032448;28;20060;-77
2021/05/10 09:23:56;;;;;;;2.83;1.20;;;;;;;;;;5052919;28;20029;-80
2021/05/10 09:26:28;;;;;;;4.45;1.20;;;;;;;;;;5033983;28;20111;-81
2021/05/10 09:28:54;;;;;;;1.50;1.00;;;;;;;;;;5039662;28;20033;-83
2021/05/10 09:31:23;;;;;;;2.45;1.20;;;;;;;;;;5032384;28;20490;-77
2021/05/10 09:33:49;;;;;;;2.55;1.40;;;;;;;;;;5030638;28;20109;-82
2021/05/10 09:36:30;;;;;;;1.90;1.05;;;;;;;;;;5043409;28;20033;-81
2021/05/10 09:38:56;;;;;;;2.25;1.23;;;;;;;;;;5027419;28;20120;-80
2021/05/10 09:41:22;;;;;;;1.83;1.20;;;;;;;;;;5031545;28;20033;-82
2021/05/10 09:44:06;;;;;;;2.33;1.33;;;16.10;99.90;;;;;;5054071;28;20032;-81
2021/05/10 09:46:44;;;;;;;2.45;1.33;;;16.10;99.90;;;;;;5036973;28;20025;-81
2021/05/10 09:49:10;;;;;;;7.10;1.85;;;16.00;99.90;;;;;;5031274;28;20045;-81
2021/05/10 09:51:37;;;;;;;2.33;1.40;;;;;;;;;;5025067;28;20029;-79
2021/05/10 09:54:15;;;;;;;2.63;1.40;;;16.10;99.90;;;;;;5042824;28;20025;-79
2021/05/10 09:56:41;;;;;;;3.95;1.20;;;16.10;99.90;;;;;;5025310;28;20064;-80
2021/05/10 09:59:13;;;;;;;2.08;1.15;;;16.00;99.90;;;;;;5028581;28;20032;-80
2021/05/10 10:01:44;;;;;;;2.25;1.20;;;16.00;99.90;;;;;;5047746;28;20028;-79
2021/05/10 10:04:11;;;;;;;2.95;1.10;;;15.80;99.90;;;;;;5029657;28;20491;-79
2021/05/10 10:06:38;;;;;;;4.45;1.30;;;;;;;;;;5028346;28;20024;-81
2021/05/10 10:09:04;;;;;;;2.90;1.20;;;15.60;99.90;;;;;;5044906;28;20036;-83
2021/05/10 10:11:33;;;;;;;3.22;1.30;;;;;;;;;;5046170;28;20035;-80
2021/05/10 10:14:00;;;;;;;2.08;1.00;;;15.50;99.90;;;;;;5044393;28;20090;-81
2021/05/10 10:16:27;;;;;;;2.83;1.40;;;;;;;;;;5047005;28;20025;-80
2021/05/10 10:18:54;;;;;;;3.08;1.20;;;15.70;99.90;;;;;;5031054;28;20029;-81
2021/05/10 10:21:21;;;;;;;4.47;1.35;;;15.70;99.90;;;;;;5049775;28;20025;-80
2021/05/10 10:23:53;;;;;;;6.65;3.25;;;15.80;99.90;;;;;;5029923;28;20067;-81
2021/05/10 10:26:19;;;;;;;1.85;1.25;;;;;;;;;;5042334;28;20052;-77
2021/05/10 10:28:47;;;;;;;2.75;1.15;;;15.90;99.90;;;;;;5045030;28;20033;-80
2021/05/10 10:31:13;;;;;;;2.85;1.40;;;;;;;;;;5019805;28;20035;-81
2021/05/10 10:33:39;;;;;;;2.92;1.40;;;;;;;;;;5034364;28;20614;-78
2021/05/10 10:36:19;;;;;;;2.50;1.52;;;16.00;99.90;;;;;;5032006;28;20029;-80
2021/05/10 10:38:45;;;;;;;3.22;1.48;;;;;;;;;;5047680;28;20037;-80
2021/05/10 10:41:23;;;;;;;1.88;1.10;;;15.90;99.90;;;;;;5030381;28;20029;-78
2021/05/10 10:43:50;;;;;;;2.70;1.45;;;16.00;99.90;;;;;;5046243;28;20020;-78
2021/05/10 10:46:23;;;;;;;1.35;1.08;;;15.80;99.90;;;;;;5033635;28;20031;-82
2021/05/10 10:48:51;;;;;;;3.00;1.38;;;16.20;99.90;;;;;;5031273;28;20058;-81
2021/05/10 10:51:17;;;;;;;1.80;1.20;;;;;;;;;;5035154;28;20029;-79
2021/05/10 10:53:44;;;;;;;2.63;1.30;;;16.20;99.90;;;;;;5060663;28;20036;-81
2021/05/10 10:56:12;;;;;;;1.45;0.80;;;;;;;;;;5043085;28;20021;-79
2021/05/10 10:58:42;;;;;;;2.22;1.10;;;;;;;;;;5055051;28;20029;-83
2021/05/10 11:01:19;;;;;;;2.38;1.20;;;;;;;;;;5044979;28;20033;-81
2021/05/10 11:03:45;;;;;;;2.42;1.23;;;;;;;;;;5037323;28;20495;-82
2021/05/10 11:06:11;;;;;;;2.75;1.30;;;16.20;99.90;;;;;;5036416;28;20021;-80
2021/05/10 11:08:41;;;;;;;3.30;1.38;;;;;;;;;;5029312;28;20056;-79
2021/05/10 11:11:07;;;;;;;3.17;1.17;;;16.20;99.90;;;;;;5029074;28;20089;-77
2021/05/10 11:13:43;;;;;;;3.28;1.42;;;16.20;99.90;;;;;;5024501;28;20029;-79
2021/05/10 11:16:16;;;;;;;3.95;1.27;;;16.20;99.90;;;;;;5047448;28;20025;-80
2021/05/10 11:18:51;;;;;;;2.55;1.30;;;16.00;99.90;;;;;;5030144;28;20049;-79
2021/05/10 11:21:26;;;;;;;3.13;1.30;;;;;;;;;;5046938;28;20045;-81
2021/05/10 11:23:57;;;;;;;2.92;1.30;;;16.20;99.90;;;;;;5030519;28;20068;-80
2021/05/10 11:26:47;;;;;;;2.50;1.40;;;16.20;99.90;;;;;;5049607;28;20030;-78
2021/05/10 11:29:33;;;;;;;3.00;1.20;;;16.10;99.90;;;;;;5044754;28;20117;-80
2021/05/10 11:32:19;;;;;;;2.25;1.50;;;16.10;99.90;;;;;;5022314;28;20069;-79
2021/05/10 11:34:46;;;;;;;3.40;1.40;;;;;;;;;;5017907;28;20064;-81
2021/05/10 11:37:12;;;;;;;1.80;1.20;;;;;;;;;;5022072;28;20060;-77
2021/05/10 11:39:40;;;;;;;1.73;1.20;;;16.10;99.90;;;;;;5028443;28;20036;-79
2021/05/10 11:42:10;;;;;;;4.57;2.40;;;16.10;99.90;;;;;;5043652;28;20056;-80
2021/05/10 11:44:41;;;;;;;4.68;2.42;;;16.20;99.90;;;;;;5031688;28;20021;-78
2021/05/10 11:47:07;;;;;;;2.15;1.30;;;;;;;;;;5031368;28;20029;-80
2021/05/10 11:49:34;;;;;;;1.42;1.08;;;;;;;;;;5036738;28;20085;-79
2021/05/10 11:52:17;;;;;;;1.30;1.10;;;16.10;99.90;;;;;;5031382;28;20028;-79
2021/05/10 11:54:48;;;;;;;2.25;1.10;;;16.20;99.90;;;;;;5028644;28;20400;-78
2021/05/10 11:57:26;;;;;;;1.67;1.00;;;16.20;99.90;;;;;;5033142;28;20025;-78
2021/05/10 11:59:55;;;;;;;2.53;1.30;;;;;;;;;;5041550;28;20040;-81
2021/05/10 12:02:27;;;;;;;1.88;1.20;;;16.20;99.90;;;;;;5050467;28;20029;-79
2021/05/10 12:04:58;;;;;;;1.70;1.10;;;16.20;99.90;;;;;;5031207;28;20074;-83
2021/05/10 12:07:26;;;;;;;2.10;1.20;;;16.20;99.90;;;;;;5051320;28;20024;-82
2021/05/10 12:10:02;;;;;;;1.25;1.00;;;16.30;99.90;;;;;;5052306;28;20037;-82
2021/05/10 12:12:33;;;;;;;1.35;0.90;;;16.40;99.90;;;;;;5036159;28;20089;-77
2021/05/10 12:15:07;;;;;;;;;;;16.50;99.90;;;;;;5052750;28;20511;-81
2021/05/10 12:17:33;;;;;;;1.60;0.90;;;;;;;;;;5033519;28;19927;-83
2021/05/10 12:20:14;;;;;;;1.98;1.10;;;16.50;99.90;;;;;;5030274;28;20045;-82
2021/05/10 12:22:45;;;;;;;2.40;0.98;;;16.60;99.90;;;;;;5027307;28;20036;-83
2021/05/10 12:25:24;;;;;;;2.35;1.33;;;16.60;99.90;;;;;;5058789;28;20497;-79
2021/05/10 12:28:11;;;;;;;1.13;0.95;;;16.90;99.90;;;;;;5047267;28;20076;-81
2021/05/10 12:30:54;;;;;;;1.40;1.00;;;16.90;99.90;;;;;;5033292;28;20020;-78
2021/05/10 12:33:28;;;;;;;2.03;0.95;;;17.20;99.90;;;;;;5029096;28;20032;-80
2021/05/10 12:36:03;;;;;;;1.90;1.10;;;17.40;99.90;;;;;;5060653;28;20024;-79
2021/05/10 12:38:36;;;;;;;1.67;1.00;;;15.00;99.40;;;;;;5051669;28;20168;-80
2021/05/10 12:41:02;;;;;;;1.55;1.17;;;;;;;;;;5051652;28;20013;-82
2021/05/10 12:43:29;;;;;;;0.80;0.70;;;17.50;99.50;;;;;;5048736;28;20036;-84
2021/05/10 12:46:04;;;;;;;1.83;1.17;;;17.60;99.50;;;;;;5044173;28;20029;-80
2021/05/10 12:48:38;;;;;;;2.03;0.90;;;17.50;99.40;;;;;;5031839;28;20087;-81
2021/05/10 12:51:06;;;;;;;1.30;0.85;;;17.40;99.90;;;;;;5051643;28;20052;-83
2021/05/10 12:53:39;;;;;;;1.80;1.02;;;17.40;99.50;;;;;;5054260;28;20024;-81
2021/05/10 12:56:07;;;;;;;2.20;1.10;;;17.40;99.90;;;;;;5035239;28;20044;-82
2021/05/10 12:58:37;;;;;;;1.60;0.90;;;17.40;99.40;;;;;;5054210;28;20033;-83
2021/05/10 13:01:19;;;;;;;1.05;0.70;;;17.30;99.40;;;;;;5057086;28;20084;-83
2021/05/10 13:03:46;;;;;;;1.35;0.70;;;17.40;99.10;;;;;;5036127;28;20021;-83
2021/05/10 13:06:24;;;;;;;2.25;1.00;;;17.50;99.20;;;;;;5037021;28;20016;-81
2021/05/10 13:08:51;;;;;;;1.10;0.80;;;;;;;;;;5039835;28;20028;-80
2021/05/10 13:11:23;;;;;;;1.70;1.00;;;17.40;99.50;;;;;;5034862;28;20113;-82
2021/05/10 13:16:28;;;;;;;1.20;0.90;;;17.50;99.10;;;;;;5049676;28;20025;-80
2021/05/10 13:32:39;;;;;;;1.33;0.77;;;17.00;99.90;;;;;;5045375;28;20053;-85
2021/05/10 13:35:19;;;;;;;1.17;0.80;;;;;;;;;;5051488;28;20161;-79
2021/05/10 13:38:03;;;;;;;2.15;0.80;;;17.20;99.90;;;;;;5032290;28;20119;-80
2021/05/10 13:40:29;;;;;;;2.42;0.90;;;;;;;;;;5031059;28;20020;-82
2021/05/10 13:43:01;;;;;;;1.88;1.00;;;;;;;;;;5028755;28;20045;-82
2021/05/10 13:45:27;;;;;;;1.95;0.90;;;;;;;;;;5048455;28;20492;-79